createdAt,value
2022-08-03T00:00:40.841Z,101161.38
2022-08-03T00:03:09.099Z,101155.09
2022-08-03T00:05:37.981Z,101153.75
2022-08-03T00:08:06.396Z,101155.75
2022-08-03T00:10:39.089Z,101157.38
2022-08-03T00:13:06.705Z,101155.22
2022-08-03T00:15:35.190Z,101158.53
2022-08-03T00:18:03.940Z,101151.78
2022-08-03T00:20:31.756Z,101146.13
2022-08-03T00:23:00.552Z,101147.72
2022-08-03T00:25:38.124Z,101150.31
2022-08-03T00:28:07.591Z,101144.56
2022-08-03T00:30:37.405Z,101137.28
2022-08-03T00:33:06.340Z,101130.38
2022-08-03T00:35:50.241Z,101128.44
2022-08-03T00:38:24.346Z,101124.69
2022-08-03T00:40:52.538Z,101130.25
2022-08-03T00:43:20.918Z,101125.28
2022-08-03T00:45:49.156Z,101124.78
2022-08-03T00:48:24.931Z,101123.59
2022-08-03T00:51:01.515Z,101119.31
2022-08-03T00:53:30.269Z,101123.44
2022-08-03T00:55:59.155Z,101116.28
2022-08-03T00:58:27.628Z,101119.81
2022-08-03T01:00:56.981Z,101114.59
2022-08-03T01:03:25.601Z,101109.13
2022-08-03T01:06:01.501Z,101108.28
2022-08-03T01:08:58.369Z,101096.84
2022-08-03T01:12:00.485Z,101094.31
2022-08-03T01:14:32.364Z,101096.09
2022-08-03T01:17:11.515Z,101091.19
2022-08-03T01:20:07.550Z,101087.34
2022-08-03T01:23:12.949Z,101086.25
2022-08-03T01:25:54.195Z,101086.81
2022-08-03T01:28:41.479Z,101084.13
2022-08-03T01:31:26.404Z,101085.00
2022-08-03T01:34:00.307Z,101080.88
2022-08-03T01:36:37.254Z,101075.41
2022-08-03T01:39:10.135Z,101074.66
2022-08-03T01:41:45.259Z,101071.38
2022-08-03T01:44:29.283Z,101076.59
2022-08-03T01:47:03.901Z,101073.34
2022-08-03T01:49:39.742Z,101073.81
2022-08-03T01:52:10.005Z,101070.56
2022-08-03T01:54:44.033Z,101068.13
2022-08-03T01:57:14.825Z,101062.41
2022-08-03T01:59:49.862Z,101061.81
2022-08-03T02:02:33.440Z,101048.44
2022-08-03T02:05:04.227Z,101046.81
2022-08-03T02:07:35.829Z,101050.13
2022-08-03T02:10:06.731Z,101044.72
2022-08-03T02:12:37.888Z,101044.75
2022-08-03T02:15:08.705Z,101046.47
2022-08-03T02:17:40.335Z,101047.25
2022-08-03T02:20:12.750Z,101047.22
2022-08-03T02:22:42.907Z,101036.59
2022-08-03T02:25:14.317Z,101047.22
2022-08-03T02:27:49.959Z,101041.50
2022-08-03T02:30:43.967Z,101044.81
2022-08-03T02:33:40.683Z,101053.59
2022-08-03T02:36:19.841Z,101054.47
2022-08-03T02:39:08.751Z,101048.16
2022-08-03T02:41:45.584Z,101043.03
2022-08-03T02:44:17.554Z,101044.44
2022-08-03T02:46:52.621Z,101036.78
2022-08-03T02:49:41.420Z,101030.28
2022-08-03T02:52:17.117Z,101030.59
2022-08-03T02:54:55.934Z,101041.25
2022-08-03T02:57:26.878Z,101033.06
2022-08-03T02:59:57.267Z,101033.28
2022-08-03T03:02:26.956Z,101031.66
2022-08-03T03:05:52.345Z,101027.84
2022-08-03T03:07:51.319Z,101032.84
2022-08-03T03:10:23.542Z,101020.81
2022-08-03T03:12:56.435Z,101031.22
2022-08-03T03:15:30.274Z,101028.53
2022-08-03T03:18:00.587Z,101026.84
2022-08-03T03:20:32.629Z,101030.41
2022-08-03T03:23:01.866Z,101024.41
2022-08-03T03:25:33.785Z,101018.13
2022-08-03T03:28:03.469Z,101022.50
2022-08-03T03:30:44.351Z,101026.88
2022-08-03T03:33:22.804Z,101021.44
2022-08-03T03:36:00.591Z,101017.09
2022-08-03T03:38:28.798Z,101015.44
2022-08-03T03:40:57.384Z,101013.81
2022-08-03T03:43:26.194Z,101009.72
2022-08-03T03:45:56.434Z,101010.00
2022-08-03T03:48:26.450Z,101013.81
2022-08-03T03:50:55.173Z,101006.44
2022-08-03T03:53:23.908Z,101009.13
2022-08-03T03:56:01.736Z,101007.50
2022-08-03T03:58:32.711Z,100998.50
2022-08-03T04:01:01.394Z,101003.13
2022-08-03T04:03:32.451Z,101005.09
2022-08-03T04:06:19.546Z,101004.03
2022-08-03T04:09:08.636Z,101003.25
2022-08-03T04:11:41.494Z,100995.91
2022-08-03T04:14:33.362Z,100996.44
2022-08-03T04:17:05.814Z,100994.53
2022-08-03T04:19:44.433Z,100994.78
2022-08-03T04:22:15.914Z,100994.25
2022-08-03T04:24:51.855Z,100999.97
2022-08-03T04:27:25.809Z,100997.00
2022-08-03T04:29:57.333Z,100996.47
2022-08-03T04:32:53.287Z,101000.59
2022-08-03T04:36:02.046Z,101002.53
2022-08-03T04:38:26.965Z,101002.25
2022-08-03T04:40:57.301Z,101005.81
2022-08-03T04:43:26.803Z,101004.69
2022-08-03T04:45:55.882Z,101003.63
2022-08-03T04:48:24.599Z,101004.44
2022-08-03T04:50:54.429Z,101008.53
2022-08-03T04:53:27.273Z,101008.25
2022-08-03T04:55:55.377Z,101010.97
2022-08-03T04:58:23.440Z,101013.41
2022-08-03T05:00:52.925Z,101009.63
2022-08-03T05:03:25.033Z,101003.31
2022-08-03T05:06:01.604Z,101004.94
2022-08-03T05:08:30.769Z,101010.13
2022-08-03T05:11:00.103Z,101008.16
2022-08-03T05:13:28.349Z,101007.91
2022-08-03T05:15:57.103Z,101008.44
2022-08-03T05:18:24.933Z,101006.00
2022-08-03T05:20:53.054Z,101007.41
2022-08-03T05:23:21.388Z,101011.44
2022-08-03T05:25:49.678Z,101012.78
2022-08-03T05:28:18.123Z,101019.28
2022-08-03T05:30:45.917Z,101020.06
2022-08-03T05:33:13.801Z,101017.63
2022-08-03T05:35:56.811Z,101023.63
2022-08-03T05:38:34.825Z,101017.13
2022-08-03T05:41:21.785Z,101017.97
2022-08-03T05:43:54.373Z,101025.31
2022-08-03T05:46:23.418Z,101021.50
2022-08-03T05:48:52.755Z,101019.88
2022-08-03T05:51:24.585Z,101022.88
2022-08-03T05:53:53.715Z,101028.84
2022-08-03T05:56:26.151Z,101026.41
2022-08-03T05:58:56.013Z,101026.41
2022-08-03T06:01:24.194Z,101035.91
2022-08-03T06:03:53.147Z,101029.63
2022-08-03T06:06:21.774Z,101028.31
2022-08-03T06:08:49.911Z,101029.34
2022-08-03T06:11:18.274Z,101029.34
2022-08-03T06:13:46.612Z,101036.63
2022-08-03T06:16:14.914Z,101040.09
2022-08-03T06:18:43.482Z,101037.47
2022-08-03T06:21:15.680Z,101043.59
2022-08-03T06:23:54.643Z,101043.00
2022-08-03T06:26:25.937Z,101050.13
2022-08-03T06:28:54.728Z,101055.28
2022-08-03T06:31:32.963Z,101055.53
2022-08-03T06:34:33.904Z,101052.22
2022-08-03T06:37:01.309Z,101053.31
2022-08-03T06:39:29.174Z,101053.84
2022-08-03T06:41:57.479Z,101050.47
2022-08-03T06:44:25.372Z,101049.66
2022-08-03T06:46:53.510Z,101053.63
2022-08-03T06:49:21.826Z,101056.50
2022-08-03T06:52:03.250Z,101058.00
2022-08-03T06:54:34.669Z,101067.22
2022-08-03T06:57:02.723Z,101060.31
2022-08-03T07:00:10.827Z,101057.72
2022-08-03T07:02:20.518Z,101063.94
2022-08-03T07:04:50.130Z,101058.84
2022-08-03T07:07:18.331Z,101059.53
2022-08-03T07:09:55.741Z,101062.19
2022-08-03T07:12:30.209Z,101069.44
2022-08-03T07:15:02.357Z,101074.28
2022-08-03T07:17:33.062Z,101066.81
2022-08-03T07:20:01.831Z,101080.56
2022-08-03T07:22:29.966Z,101074.72
2022-08-03T07:24:57.693Z,101071.63
2022-08-03T07:27:27.620Z,101076.34
2022-08-03T07:29:55.759Z,101073.47
2022-08-03T07:32:25.289Z,101072.28
2022-08-03T07:34:58.298Z,101075.34
2022-08-03T07:37:28.827Z,101065.91
2022-08-03T07:39:56.663Z,101072.66
2022-08-03T07:42:25.324Z,101074.78
2022-08-03T07:44:53.136Z,101071.53
2022-08-03T07:47:23.741Z,101067.59
2022-08-03T07:49:51.861Z,101079.53
2022-08-03T07:52:38.114Z,101070.59
2022-08-03T07:55:07.075Z,101080.84
2022-08-03T07:57:35.280Z,101073.91
2022-08-03T08:00:04.894Z,101077.28
2022-08-03T08:02:42.410Z,101073.50
2022-08-03T08:05:11.497Z,101074.94
2022-08-03T08:07:39.877Z,101071.47
2022-08-03T08:10:10.535Z,101061.91
2022-08-03T08:12:40.047Z,101066.25
2022-08-03T08:15:09.421Z,101066.34
2022-08-03T08:17:52.616Z,101068.03
2022-08-03T08:20:28.348Z,101062.72
2022-08-03T08:23:03.519Z,101071.09
2022-08-03T08:25:37.896Z,101073.09
2022-08-03T08:28:30.081Z,101078.13
2022-08-03T08:30:54.448Z,101072.19
2022-08-03T08:33:23.949Z,101070.97
2022-08-03T08:35:55.344Z,101072.97
2022-08-03T08:38:24.014Z,101067.81
2022-08-03T08:40:52.704Z,101079.50
2022-08-03T08:43:20.388Z,101067.25
2022-08-03T08:45:52.980Z,101071.72
2022-08-03T08:48:25.438Z,101071.38
2022-08-03T08:50:57.736Z,101075.75
2022-08-03T08:53:29.500Z,101074.13
2022-08-03T08:56:02.472Z,101074.75
2022-08-03T08:58:35.712Z,101080.88
2022-08-03T09:01:05.009Z,101085.38
2022-08-03T09:03:35.022Z,101080.41
2022-08-03T09:06:03.343Z,101084.91
2022-08-03T09:08:32.574Z,101087.66
2022-08-03T09:11:01.669Z,101086.13
2022-08-03T09:13:29.835Z,101093.88
2022-08-03T09:16:14.153Z,101095.00
2022-08-03T09:18:43.999Z,101091.81
2022-08-03T09:21:31.699Z,101096.81
2022-08-03T09:24:07.059Z,101095.19
2022-08-03T09:26:38.956Z,101098.69
2022-08-03T09:29:12.831Z,101095.19
2022-08-03T09:31:46.874Z,101095.38
2022-08-03T09:34:17.549Z,101107.19
2022-08-03T09:36:47.389Z,101101.50
2022-08-03T09:39:16.205Z,101108.94
2022-08-03T09:41:46.208Z,101110.22
2022-08-03T09:44:25.233Z,101109.75
2022-08-03T09:46:57.403Z,101105.38
2022-08-03T09:49:25.484Z,101113.50
2022-08-03T09:52:32.387Z,101098.75
2022-08-03T09:54:43.401Z,101103.53
2022-08-03T09:57:25.282Z,101105.16
2022-08-03T10:00:04.461Z,101105.25
2022-08-03T10:03:06.375Z,101110.22
2022-08-03T10:05:34.758Z,101112.56
2022-08-03T10:08:16.188Z,101115.13
2022-08-03T10:10:45.855Z,101116.25
2022-08-03T10:13:18.533Z,101118.25
2022-08-03T10:16:24.988Z,101112.44
2022-08-03T10:18:34.554Z,101117.44
2022-08-03T10:21:11.059Z,101111.19
2022-08-03T10:23:42.576Z,101117.56
2022-08-03T10:26:13.679Z,101112.25
2022-08-03T10:28:47.949Z,101112.56
2022-08-03T10:31:18.815Z,101105.63
2022-08-03T10:33:59.692Z,101107.06
2022-08-03T10:36:31.195Z,101110.09
2022-08-03T10:39:01.628Z,101109.03
2022-08-03T10:41:34.016Z,101111.69
2022-08-03T10:44:11.589Z,101111.38
2022-08-03T10:46:44.676Z,101109.63
2022-08-03T10:49:34.769Z,101103.13
2022-08-03T10:52:12.779Z,101115.50
2022-08-03T10:55:17.467Z,101109.94
2022-08-03T10:58:07.990Z,101106.75
2022-08-03T11:00:54.065Z,101105.81
2022-08-03T11:03:37.743Z,101101.94
2022-08-03T11:06:23.384Z,101103.31
2022-08-03T11:09:17.008Z,101100.25
2022-08-03T11:11:51.150Z,101093.59
2022-08-03T11:14:33.589Z,101106.34
2022-08-03T11:17:15.535Z,101096.13
2022-08-03T11:19:57.315Z,101099.56
2022-08-03T11:22:51.389Z,101099.50
2022-08-03T11:25:53.154Z,101095.63
2022-08-03T11:28:30.680Z,101094.47
2022-08-03T11:31:49.937Z,101090.44
2022-08-03T11:34:16.297Z,101089.38
2022-08-03T11:37:22.489Z,101095.56
2022-08-03T11:39:54.017Z,101101.56
2022-08-03T11:42:28.563Z,101098.47
2022-08-03T11:44:58.687Z,101098.50
2022-08-03T11:47:28.805Z,101095.59
2022-08-03T11:50:01.002Z,101095.50
2022-08-03T11:52:35.896Z,101089.38
2022-08-03T11:55:10.715Z,101093.31
2022-08-03T11:59:01.669Z,101095.53
2022-08-03T12:00:30.936Z,101084.31
2022-08-03T12:03:03.321Z,101098.69
2022-08-03T12:05:53.477Z,101096.13
2022-08-03T12:08:29.954Z,101085.66
2022-08-03T12:11:00.387Z,101087.94
2022-08-03T12:14:26.938Z,101078.72
2022-08-03T12:16:29.460Z,101085.19
2022-08-03T12:19:03.484Z,101092.63
2022-08-03T12:21:32.142Z,101084.84
2022-08-03T12:24:05.244Z,101086.16
2022-08-03T12:26:59.023Z,101089.09
2022-08-03T12:29:28.055Z,101077.78
2022-08-03T12:31:56.590Z,101082.13
2022-08-03T12:34:24.584Z,101082.13
2022-08-03T12:36:57.183Z,101089.13
2022-08-03T12:39:31.969Z,101072.94
2022-08-03T12:42:00.633Z,101082.63
2022-08-03T12:44:37.261Z,101077.28
2022-08-03T12:47:07.401Z,101082.31
2022-08-03T12:49:51.724Z,101077.13
2022-08-03T12:52:23.954Z,101091.03
2022-08-03T12:55:02.105Z,101094.22
2022-08-03T12:57:43.321Z,101088.91
2022-08-03T13:00:21.652Z,101091.22
2022-08-03T13:03:38.819Z,101089.22
2022-08-03T13:05:53.127Z,101085.19
2022-08-03T13:08:25.238Z,101087.03
2022-08-03T13:10:59.380Z,101095.00
2022-08-03T13:13:58.537Z,101077.25
2022-08-03T13:16:26.799Z,101083.38
2022-08-03T13:18:57.182Z,101080.75
2022-08-03T13:21:24.980Z,101082.50
2022-08-03T13:23:53.060Z,101072.06
2022-08-03T13:26:21.364Z,101075.63
2022-08-03T13:28:49.932Z,101075.31
2022-08-03T13:31:18.021Z,101084.38
2022-08-03T13:33:48.438Z,101070.84
2022-08-03T13:36:21.074Z,101077.34
2022-08-03T13:38:49.322Z,101071.44
2022-08-03T13:41:17.667Z,101076.94
2022-08-03T13:44:26.184Z,101081.53
2022-08-03T13:46:47.024Z,101073.28
2022-08-03T13:49:15.367Z,101070.00
2022-08-03T13:51:43.898Z,101070.00
2022-08-03T13:54:11.980Z,101071.13
2022-08-03T13:56:39.893Z,101076.63
2022-08-03T13:59:07.936Z,101060.53
2022-08-03T14:01:54.361Z,101062.38
2022-08-03T14:04:23.048Z,101061.69
2022-08-03T14:06:59.805Z,101065.34
2022-08-03T14:09:27.834Z,101058.25
2022-08-03T14:12:07.153Z,101053.88
2022-08-03T14:14:36.451Z,101059.38
2022-08-03T14:17:04.257Z,101056.47
2022-08-03T14:19:32.228Z,101056.94
2022-08-03T14:22:19.752Z,101060.09
2022-08-03T14:24:50.472Z,101064.28
2022-08-03T14:27:19.104Z,101060.56
2022-08-03T14:29:49.626Z,101059.78
2022-08-03T14:32:17.127Z,101055.22
2022-08-03T14:34:45.254Z,101058.75
2022-08-03T14:37:12.876Z,101059.78
2022-08-03T14:40:00.298Z,101059.97
2022-08-03T14:42:29.299Z,101055.13
2022-08-03T14:45:02.457Z,101051.75
2022-08-03T14:47:33.571Z,101050.50
2022-08-03T14:50:35.702Z,101049.19
2022-08-03T14:53:07.116Z,101041.72
2022-08-03T14:55:38.868Z,101046.13
2022-08-03T14:58:23.007Z,101044.81
2022-08-03T15:00:55.999Z,101051.00
2022-08-03T15:03:25.430Z,101047.78
2022-08-03T15:05:54.921Z,101041.25
2022-08-03T15:08:25.861Z,101031.59
2022-08-03T15:10:56.637Z,101039.63
2022-08-03T15:13:25.784Z,101035.19
2022-08-03T15:15:55.424Z,101031.28
2022-08-03T15:18:25.048Z,101028.84
2022-08-03T15:20:59.234Z,101036.03
2022-08-03T15:23:27.306Z,101021.91
2022-08-03T15:26:27.884Z,101035.53
2022-08-03T15:28:44.514Z,101023.06
2022-08-03T15:31:12.890Z,101020.63
2022-08-03T15:33:48.359Z,101020.03
2022-08-03T15:36:17.650Z,101025.66
2022-08-03T15:38:46.230Z,101018.22
2022-08-03T15:41:14.699Z,101025.66
2022-08-03T15:43:47.632Z,101027.91
2022-08-03T15:46:31.774Z,101031.06
2022-08-03T15:48:59.663Z,101031.53
2022-08-03T15:51:27.603Z,101038.38
2022-08-03T15:53:57.940Z,101027.81
2022-08-03T15:56:27.119Z,101029.28
2022-08-03T15:59:13.508Z,101027.47
2022-08-03T16:01:52.770Z,101026.19
2022-08-03T16:04:27.456Z,101019.38
2022-08-03T16:07:08.090Z,101019.53
2022-08-03T16:09:46.269Z,101020.19
2022-08-03T16:12:16.166Z,101019.38
2022-08-03T16:14:54.018Z,101017.44
2022-08-03T16:17:32.830Z,101022.78
2022-08-03T16:20:01.157Z,101025.72
2022-08-03T16:22:44.832Z,101024.38
2022-08-03T16:25:16.385Z,101025.19
2022-08-03T16:28:00.489Z,101022.13
2022-08-03T16:30:33.721Z,101011.41
2022-08-03T16:33:01.637Z,101017.06
2022-08-03T16:35:29.552Z,101010.78
2022-08-03T16:37:58.074Z,101013.88
2022-08-03T16:40:27.071Z,101014.16
2022-08-03T16:42:55.373Z,101015.47
2022-08-03T16:45:23.840Z,101021.16
2022-08-03T16:48:05.394Z,101021.59
2022-08-03T16:50:36.311Z,101027.31
2022-08-03T16:53:09.746Z,101027.78
2022-08-03T16:55:50.158Z,101019.03
2022-08-03T16:58:41.285Z,101020.97
2022-08-03T17:01:21.457Z,101014.16
2022-08-03T17:04:03.364Z,101019.19
2022-08-03T17:06:44.895Z,101024.38
2022-08-03T17:09:22.038Z,101018.41
2022-08-03T17:11:52.764Z,101020.50
2022-08-03T17:14:29.277Z,101019.03
2022-08-03T17:17:01.796Z,101015.94
2022-08-03T17:19:32.790Z,101015.94
2022-08-03T17:22:08.163Z,101015.31
2022-08-03T17:24:41.420Z,101024.53
2022-08-03T17:28:51.422Z,101018.69
2022-08-03T17:30:11.875Z,101015.13
2022-08-03T17:32:52.651Z,101020.13
2022-08-03T17:35:36.493Z,101021.78
2022-08-03T17:38:13.728Z,101020.97
2022-08-03T17:40:50.261Z,101014.16
2022-08-03T17:44:13.579Z,101016.25
2022-08-03T17:46:21.848Z,101024.22
2022-08-03T17:48:51.838Z,101020.50
2022-08-03T17:51:46.167Z,101021.81
2022-08-03T17:54:23.586Z,101028.09
2022-08-03T17:57:00.474Z,101027.44
2022-08-03T17:59:57.200Z,101035.19
2022-08-03T18:03:16.619Z,101036.63
2022-08-03T18:06:10.515Z,101042.25
2022-08-03T18:08:57.102Z,101045.28
2022-08-03T18:11:37.091Z,101043.00
2022-08-03T18:14:17.018Z,101041.69
2022-08-03T18:16:52.485Z,101048.28
2022-08-03T18:20:03.604Z,101052.03
2022-08-03T18:22:11.389Z,101059.63
2022-08-03T18:24:40.358Z,101060.06
2022-08-03T18:27:11.284Z,101052.94
2022-08-03T18:29:42.549Z,101052.75
2022-08-03T18:32:16.738Z,101056.53
2022-08-03T18:34:53.045Z,101054.75
2022-08-03T18:37:26.647Z,101056.03
2022-08-03T18:40:07.446Z,101061.00
2022-08-03T18:42:36.291Z,101063.09
2022-08-03T18:45:14.988Z,101061.72
2022-08-03T18:48:18.785Z,101065.59
2022-08-03T18:51:10.430Z,101070.09
2022-08-03T18:56:55.190Z,101077.66
2022-08-03T18:59:36.709Z,101073.91
2022-08-03T19:02:30.462Z,101069.50
2022-08-03T19:05:07.954Z,101084.69
2022-08-03T19:07:37.808Z,101073.53
2022-08-03T19:10:15.680Z,101068.34
2022-08-03T19:12:58.378Z,101087.66
2022-08-03T19:15:36.826Z,101091.53
2022-08-03T19:18:10.486Z,101092.63
2022-08-03T19:20:39.065Z,101088.06
2022-08-03T19:23:07.532Z,101088.41
2022-08-03T19:25:40.670Z,101093.88
2022-08-03T19:28:10.570Z,101095.41
2022-08-03T19:30:40.707Z,101092.69
2022-08-03T19:33:16.333Z,101101.44
2022-08-03T19:35:55.622Z,101106.84
2022-08-03T19:38:28.689Z,101104.91
2022-08-03T19:41:07.828Z,101112.44
2022-08-03T19:43:58.201Z,101117.25
2022-08-03T19:46:34.034Z,101117.56
2022-08-03T19:49:19.560Z,101118.47
2022-08-03T19:52:00.807Z,101124.56
2022-08-03T19:54:53.771Z,101136.66
2022-08-03T19:57:35.773Z,101146.72
2022-08-03T20:00:09.103Z,101148.31
2022-08-03T20:02:40.072Z,101154.66
2022-08-03T20:05:14.727Z,101162.97
2022-08-03T20:07:47.745Z,101168.25
2022-08-03T20:10:18.488Z,101176.41
2022-08-03T20:12:48.378Z,101181.19
2022-08-03T20:15:18.295Z,101186.88
2022-08-03T20:17:59.951Z,101174.44
2022-08-03T20:20:35.067Z,101174.19
2022-08-03T20:23:16.569Z,101179.13
2022-08-03T20:25:58.554Z,101176.78
2022-08-03T20:28:33.996Z,101181.47
2022-08-03T20:31:05.687Z,101186.44
2022-08-03T20:33:48.487Z,101182.09
2022-08-03T20:36:18.818Z,101187.16
2022-08-03T20:38:48.260Z,101186.13
2022-08-03T20:41:17.717Z,101176.38
2022-08-03T20:43:46.960Z,101180.44
2022-08-03T20:46:51.682Z,101173.72
2022-08-03T20:49:24.246Z,101167.63
2022-08-03T20:51:53.490Z,101164.97
2022-08-03T20:54:31.353Z,101159.91
2022-08-03T20:57:06.991Z,101169.78
2022-08-03T20:59:50.627Z,101167.63
2022-08-03T21:02:29.945Z,101173.00
2022-08-03T21:05:02.849Z,101172.09
2022-08-03T21:08:04.203Z,101159.50
2022-08-03T21:10:27.955Z,101158.88
2022-08-03T21:13:00.957Z,101073.16
2022-08-03T21:16:12.454Z,101148.72
2022-08-03T21:18:46.034Z,101143.84
2022-08-03T21:21:16.260Z,101134.19
2022-08-03T21:23:48.929Z,101142.41
2022-08-03T21:26:23.076Z,101134.09
2022-08-03T21:29:12.045Z,101137.13
2022-08-03T21:31:41.397Z,101128.38
2022-08-03T21:34:09.096Z,101124.13
2022-08-03T21:36:38.293Z,101129.22
2022-08-03T21:39:09.870Z,101121.78
2022-08-03T21:41:40.157Z,101129.22
2022-08-03T21:44:08.809Z,101122.41
2022-08-03T21:46:45.150Z,101116.06
2022-08-03T21:50:07.262Z,101112.41
2022-08-03T21:52:08.116Z,101105.03
2022-08-03T21:54:46.332Z,101101.91
2022-08-03T21:57:26.578Z,101100.25
2022-08-03T22:00:03.546Z,101101.91
2022-08-03T22:02:54.441Z,101107.47
2022-08-03T22:05:29.077Z,101101.09
2022-08-03T22:08:15.591Z,101100.88
2022-08-03T22:10:48.041Z,101097.19
2022-08-03T22:13:44.079Z,101107.03
2022-08-03T22:16:08.531Z,101107.03
2022-08-03T22:18:46.198Z,101100.44
2022-08-03T22:21:27.765Z,101100.44
2022-08-03T22:24:06.966Z,101099.03
2022-08-03T22:27:05.539Z,101096.78
2022-08-03T22:29:37.885Z,101096.00
2022-08-03T22:32:17.083Z,101088.88
2022-08-03T22:34:48.697Z,101085.91
2022-08-03T22:37:33.643Z,101080.44
2022-08-03T22:40:10.524Z,101081.03
2022-08-03T22:42:40.274Z,101081.34
2022-08-03T22:45:10.193Z,101080.22
2022-08-03T22:47:58.837Z,101076.09
2022-08-03T22:50:31.341Z,101074.75
2022-08-03T22:53:03.930Z,101075.44
2022-08-03T22:55:32.875Z,101073.59
2022-08-03T22:58:01.537Z,101074.09
2022-08-03T23:00:30.563Z,101071.66
2022-08-03T23:03:02.981Z,101073.88
2022-08-03T23:06:01.778Z,101081.06
2022-08-03T23:08:36.538Z,101092.19
2022-08-03T23:11:09.457Z,101093.28
2022-08-03T23:13:40.979Z,101087.50
2022-08-03T23:16:09.197Z,101081.22
2022-08-03T23:18:45.046Z,101080.00
2022-08-03T23:21:15.249Z,101071.50
2022-08-03T23:23:47.134Z,101062.59
2022-08-03T23:26:18.975Z,101054.63
2022-08-03T23:28:49.134Z,101055.13
2022-08-03T23:31:19.468Z,101048.97
2022-08-03T23:34:16.392Z,101041.78
2022-08-03T23:36:49.210Z,101046.78
2022-08-03T23:39:18.631Z,101050.63
2022-08-03T23:41:49.497Z,101061.56
2022-08-03T23:44:24.777Z,101065.94
2022-08-03T23:46:53.621Z,101067.03
2022-08-03T23:49:22.004Z,101062.66
2022-08-03T23:52:21.811Z,101070.16
2022-08-03T23:55:10.304Z,101071.84
2022-08-03T23:57:50.306Z,101074.09
